Time;durP1;ratioP1;P1;durP2;ratioP2;P2;SDS_P1;SDS_P2;PMS_P1;PMS_P2;Temp;Humidity;BMP_temperature;BMP_pressure;BME280_temperature;BME280_humidity;BME280_pressure;Samples;Min_cycle;Max_cycle;Signal;HPM_P1;HPM_P2
2021/12/26 11:18:29;;;;;;;27.13;12.60;;;;;;;13.79;46.53;98716.09;4560931;29;3467611;-95
2021/12/26 11:20:57;;;;;;;29.47;12.37;;;;;;;13.64;47.99;98717.19;4843725;29;20218;-94
2021/12/26 11:23:32;;;;;;;34.30;13.07;;;;;;;13.52;48.16;98713.63;4843739;29;20190;-93
2021/12/26 11:26:02;;;;;;;32.00;14.30;;;;;;;13.31;49.18;98712.50;4844283;29;20186;-94
2021/12/26 11:28:30;;;;;;;30.97;13.53;;;;;;;13.04;49.79;98709.16;4843748;29;20190;-94
2021/12/26 11:30:59;;;;;;;31.90;13.37;;;;;;;13.10;50.12;98714.00;4843635;29;20284;-93
2021/12/26 11:33:25;;;;;;;32.60;14.10;;;;;;;13.05;50.45;98704.75;4827766;29;20236;-94
2021/12/26 11:35:52;;;;;;;26.47;13.53;;;;;;;13.15;50.50;98711.06;4842735;29;20656;-92
2021/12/26 11:38:21;;;;;;;39.70;15.30;;;;;;;13.20;50.75;98703.69;4843496;29;20181;-93
2021/12/26 11:40:49;;;;;;;38.00;14.97;;;;;;;13.28;50.70;98698.75;4827617;29;20309;-93
2021/12/26 11:43:54;;;;;;;29.87;13.97;;;;;;;13.27;50.51;98697.91;4842958;29;20189;-94
2021/12/26 11:46:31;;;;;;;38.97;14.10;;;;;;;13.28;50.64;98694.31;4830647;29;20261;-93
2021/12/26 11:49:23;;;;;;;33.07;13.50;;;;;;;13.20;50.56;98699.28;4843655;29;20177;-93
2021/12/26 11:52:17;;;;;;;35.47;13.67;;;;;;;12.65;51.37;98709.25;4843565;29;20317;-94
2021/12/26 11:55:15;;;;;;;36.77;15.60;;;;;;;12.81;51.67;98702.00;4842549;29;20185;-94
2021/12/26 11:57:52;;;;;;;31.70;15.50;;;;;;;12.92;52.04;98705.56;4842527;29;20243;-93
2021/12/26 12:00:25;;;;;;;31.87;14.43;;;;;;;12.91;51.07;98700.44;4843446;29;20201;-93
2021/12/26 12:02:53;;;;;;;29.83;13.23;;;;;;;12.89;50.88;98700.50;4842370;29;20544;-93
2021/12/26 12:05:36;;;;;;;40.00;15.50;;;;;;;12.90;50.85;98699.59;4843170;29;20181;-93
2021/12/26 12:08:07;;;;;;;32.27;12.80;;;;;;;12.93;50.78;98693.25;4843614;29;20170;-93
2021/12/26 12:10:40;;;;;;;43.30;14.67;;;;;;;13.07;51.24;98685.31;4827046;29;20174;-93
2021/12/26 12:13:07;;;;;;;41.57;15.60;;;;;;;13.12;50.63;98690.22;4842229;29;20193;-93
2021/12/26 12:15:46;;;;;;;33.83;15.30;;;;;;;12.95;50.75;98696.63;4842984;29;20177;-94
2021/12/26 12:18:23;;;;;;;49.20;20.87;;;;;;;13.09;50.97;98687.81;4842122;29;20720;-93
2021/12/26 12:21:08;;;;;;;43.07;18.40;;;;;;;13.25;50.72;98681.38;4842268;29;20663;-94
2021/12/26 12:23:35;;;;;;;40.53;18.33;;;;;;;13.36;50.43;98680.63;4842971;29;20169;-94
2021/12/26 12:26:01;;;;;;;34.10;14.70;;;;;;;13.42;50.42;98688.06;4827095;29;20197;-95
2021/12/26 12:28:32;;;;;;;36.73;16.43;;;;;;;13.53;50.14;98680.25;4843232;29;20190;-94
2021/12/26 12:31:07;;;;;;;36.67;15.30;;;;;;;13.65;50.24;98682.00;4827084;29;20675;-95
2021/12/26 12:33:33;;;;;;;35.57;14.43;;;;;;;13.75;49.97;98683.03;4842776;29;20244;-95
2021/12/26 12:36:09;;;;;;;49.83;16.63;;;;;;;13.77;49.03;98686.38;4826904;29;20270;-95
2021/12/26 12:38:40;;;;;;;33.93;13.63;;;;;;;13.85;49.27;98683.19;4843171;29;20198;-94
2021/12/26 12:41:27;;;;;;;39.27;15.20;;;;;;;13.94;49.01;98677.25;4827421;29;20208;-95
2021/12/26 12:43:52;;;;;;;37.23;16.40;;;;;;;13.70;48.56;98674.63;4842635;29;20203;-94
2021/12/26 12:46:18;;;;;;;41.00;16.43;;;;;;;13.59;48.89;98665.81;4842087;29;20185;-94
2021/12/26 12:49:00;;;;;;;44.73;18.20;;;;;;;13.66;49.41;98657.34;4843063;29;20191;-95
2021/12/26 12:51:26;;;;;;;54.87;21.33;;;;;;;13.73;49.32;98669.09;4843095;29;20177;-94
2021/12/26 12:53:56;;;;;;;45.03;19.03;;;;;;;13.73;49.52;98670.91;4842868;29;20269;-95
2021/12/26 12:56:34;;;;;;;42.00;19.90;;;;;;;13.80;49.66;98664.25;4843141;29;20547;-95
2021/12/26 13:01:46;;;;;;;52.33;23.10;;;;;;;13.89;49.05;98679.34;4843167;29;20200;-95
2021/12/26 13:04:14;;;;;;;55.13;25.07;;;;;;;13.95;49.03;98679.78;4841805;29;20196;-94
2021/12/26 13:07:00;;;;;;;52.70;23.50;;;;;;;14.06;49.01;98685.09;4842761;29;20209;-94
2021/12/26 13:09:28;;;;;;;51.07;21.87;;;;;;;14.05;48.56;98686.03;4843134;29;20169;-93
2021/12/26 13:11:59;;;;;;;44.30;18.83;;;;;;;14.04;48.71;98679.09;4842513;29;20244;-94
2021/12/26 13:14:38;;;;;;;41.30;19.87;;;;;;;14.07;48.46;98686.75;4842478;29;20199;-94
2021/12/26 13:17:06;;;;;;;42.13;18.43;;;;;;;13.95;48.97;98687.66;4841493;29;20205;-94
2021/12/26 13:19:32;;;;;;;45.83;19.20;;;;;;;13.95;49.29;98690.31;4842497;29;20233;-95
2021/12/26 13:21:58;;;;;;;62.47;21.10;;;;;;;13.92;49.43;98694.94;4841311;29;20247;-95
2021/12/26 13:24:45;;;;;;;50.63;19.70;;;;;;;13.81;49.77;98701.00;4811650;29;20202;-95
2021/12/26 13:27:10;;;;;;;54.53;22.17;;;;;;;13.64;49.96;98700.53;4834152;29;20194;-93
2021/12/26 13:29:48;;;;;;;52.07;21.10;;;;;;;13.28;51.38;98706.63;4842297;29;20192;-93
2021/12/26 13:32:13;;;;;;;47.57;19.90;;;;;;;12.90;51.54;98715.38;4830967;29;20194;-93
2021/12/26 13:34:39;;;;;;;41.53;16.70;;;;;;;12.85;52.42;98711.34;4829437;29;20190;-93
2021/12/26 13:37:07;;;;;;;52.27;19.37;;;;;;;12.67;52.98;98716.09;4829153;29;20640;-93
2021/12/26 13:39:33;;;;;;;41.03;16.83;;;;;;;12.70;53.52;98713.25;4834305;29;20209;-94
2021/12/26 13:41:58;;;;;;;40.70;17.37;;;;;;;12.62;53.20;98704.19;4836157;29;20207;-94
2021/12/26 13:44:24;;;;;;;29.83;12.77;;;;;;;12.64;53.36;98711.03;4834367;29;20197;-95
2021/12/26 13:47:02;;;;;;;33.80;14.43;;;;;;;12.74;53.04;98703.34;4838738;29;20197;-94
2021/12/26 13:49:28;;;;;;;42.67;14.90;;;;;;;12.79;52.91;98706.50;4819224;29;20195;-95
2021/12/26 13:51:56;;;;;;;35.47;15.17;;;;;;;12.85;52.72;98706.94;4820851;29;20639;-94
2021/12/26 13:54:26;;;;;;;29.63;14.67;;;;;;;12.85;52.59;98709.56;4830933;29;20202;-95
2021/12/26 13:56:52;;;;;;;46.57;15.07;;;;;;;12.91;51.85;98706.53;4813368;29;20186;-94
2021/12/26 13:59:29;;;;;;;35.07;13.63;;;;;;;12.93;51.80;98711.69;4838867;29;20782;-95
2021/12/26 14:01:55;;;;;;;31.17;13.30;;;;;;;12.98;51.54;98712.19;4834741;29;20555;-94
2021/12/26 14:04:24;;;;;;;31.97;14.17;;;;;;;12.90;51.37;98720.63;4836305;29;20645;-94
2021/12/26 14:06:50;;;;;;;41.07;15.30;;;;;;;12.85;51.73;98720.09;4834650;29;20196;-93
2021/12/26 14:09:19;;;;;;;33.50;14.93;;;;;;;12.51;52.30;98719.84;4838258;29;20193;-93
2021/12/26 14:11:45;;;;;;;37.07;15.03;;;;;;;12.14;53.11;98724.91;4838245;29;20200;-93
2021/12/26 14:14:10;;;;;;;23.33;12.17;;;;;;;12.19;53.36;98732.47;4834369;29;20223;-94
2021/12/26 14:16:43;;;;;;;38.37;14.80;;;;;;;12.05;53.54;98733.41;4838363;29;20272;-93
2021/12/26 14:19:13;;;;;;;33.60;13.23;;;;;;;11.74;54.47;98735.47;4842186;29;20216;-94
2021/12/26 14:21:50;;;;;;;26.83;12.47;;;;;;;11.56;55.43;98740.91;4827497;29;20265;-93
2021/12/26 14:24:23;;;;;;;32.90;13.10;;;;;;;11.58;55.36;98736.38;4842585;29;20188;-94
2021/12/26 14:26:53;;;;;;;25.87;12.57;;;;;;;11.55;55.02;98730.50;4828080;29;20196;-94
2021/12/26 14:29:22;;;;;;;26.87;12.83;;;;;;;11.55;55.22;98736.59;4831327;29;20598;-92
2021/12/26 14:31:56;;;;;;;23.83;12.77;;;;;;;11.61;55.19;98728.31;4828662;29;20189;-94
2021/12/26 14:34:30;;;;;;;35.40;13.93;;;;;;;11.66;54.60;98733.31;4834446;29;20202;-95
2021/12/26 14:37:02;;;;;;;38.03;14.27;;;;;;;11.61;54.56;98740.59;4822336;29;20215;-92
2021/12/26 14:39:40;;;;;;;29.63;14.10;;;;;;;11.62;54.53;98748.41;4832626;29;20216;-92
2021/12/26 14:42:17;;;;;;;34.13;13.77;;;;;;;11.60;54.22;98734.53;4836259;29;20204;-94
2021/12/26 14:44:54;;;;;;;29.50;13.57;;;;;;;11.60;54.38;98744.19;4830994;29;20556;-93
2021/12/26 14:47:26;;;;;;;27.37;15.00;;;;;;;11.59;54.24;98737.22;4818258;29;20194;-92
2021/12/26 14:49:59;;;;;;;24.97;12.73;;;;;;;11.54;54.10;98740.16;4837854;29;20268;-93
2021/12/26 14:52:28;;;;;;;35.27;13.60;;;;;;;11.52;54.33;98736.78;4834369;29;20204;-93
2021/12/26 14:54:57;;;;;;;22.57;12.03;;;;;;;11.51;54.14;98740.34;4834621;29;20206;-94
2021/12/26 14:57:34;;;;;;;31.13;13.87;;;;;;;11.46;54.35;98737.16;4834553;29;20198;-92
2021/12/26 15:00:15;;;;;;;33.73;13.17;;;;;;;11.39;54.37;98746.38;4840880;29;20232;-95
2021/12/26 15:02:46;;;;;;;31.37;13.20;;;;;;;11.19;55.14;98749.34;4844133;29;20557;-94
2021/12/26 15:05:16;;;;;;;29.10;12.87;;;;;;;10.92;55.78;98737.94;4844352;29;20245;-93
2021/12/26 15:07:45;;;;;;;28.03;13.37;;;;;;;10.95;55.94;98737.75;4844445;29;20189;-92
2021/12/26 15:10:13;;;;;;;27.43;10.80;;;;;;;10.96;56.06;98735.03;4844017;29;20188;-92
2021/12/26 15:12:49;;;;;;;24.73;14.33;;;;;;;10.98;55.90;98730.53;4844317;29;20267;-93
2021/12/26 15:15:22;;;;;;;35.27;14.63;;;;;;;10.98;55.92;98729.66;4844279;29;20556;-94
2021/12/26 15:17:54;;;;;;;26.93;12.33;;;;;;;10.97;56.40;98754.22;4844069;29;20228;-94
2021/12/26 15:20:37;;;;;;;25.77;12.03;;;;;;;11.01;56.19;98755.72;4843062;29;20209;-93
2021/12/26 15:33:34;;;;;;;32.10;12.93;;;;;;;9.01;65.04;98777.53;5091709;27;20946;-91
2021/12/26 15:36:01;;;;;;;27.27;13.43;;;;;;;9.64;62.74;98761.94;5090439;28;20549;-93
2021/12/26 15:38:26;;;;;;;28.70;13.27;;;;;;;9.91;60.81;98757.78;5090129;28;20645;-93
2021/12/26 15:40:52;;;;;;;27.47;12.00;;;;;;;10.03;60.23;98749.25;5090062;28;20187;-93
2021/12/26 15:43:17;;;;;;;32.97;14.97;;;;;;;10.16;60.23;98760.75;5090960;28;20538;-93
2021/12/26 15:45:42;;;;;;;35.23;14.67;;;;;;;10.30;59.37;98766.03;5091008;28;20184;-94
2021/12/26 15:48:08;;;;;;;33.47;15.03;;;;;;;10.42;58.69;98767.13;5089961;28;20210;-92
2021/12/26 15:50:33;;;;;;;33.60;17.10;;;;;;;10.49;57.84;98768.44;5090957;28;20176;-94
2021/12/26 15:52:59;;;;;;;38.70;15.43;;;;;;;10.33;58.24;98760.63;5090747;28;20211;-94
2021/12/26 15:55:25;;;;;;;32.53;14.60;;;;;;;10.24;59.29;98755.09;5091188;28;20206;-93
2021/12/26 15:57:50;;;;;;;38.67;15.80;;;;;;;10.30;59.05;98760.78;5089724;28;20188;-93
2021/12/26 16:00:16;;;;;;;35.93;15.37;;;;;;;10.37;58.36;98769.16;5089555;28;20217;-92
2021/12/26 16:02:41;;;;;;;36.83;15.80;;;;;;;10.44;57.54;98781.81;5090586;28;20290;-94
2021/12/26 16:05:07;;;;;;;38.80;17.23;;;;;;;10.46;57.50;98787.81;5090378;28;20180;-92
2021/12/26 16:11:43;;;;;;;28.47;14.83;;;;;;;9.27;61.51;98790.09;5091052;27;20555;-84
2021/12/26 16:14:11;;;;;;;26.67;13.07;;;;;;;9.58;60.92;98793.66;5090626;28;20566;-85
2021/12/26 16:16:39;;;;;;;30.17;11.73;;;;;;;9.52;61.38;98800.06;5089404;28;20195;-84
2021/12/26 16:19:05;;;;;;;28.43;13.70;;;;;;;9.45;61.43;98792.63;5089598;28;20182;-84
2021/12/26 16:21:30;;;;;;;27.33;12.80;;;;;;;9.57;61.36;98791.97;5090758;28;20201;-85
2021/12/26 16:23:56;;;;;;;30.77;14.13;;;;;;;9.46;61.71;98799.56;5090443;28;20187;-84
2021/12/26 16:26:21;;;;;;;25.80;12.93;;;;;;;9.42;61.35;98798.03;5089461;28;20204;-84
2021/12/26 16:28:47;;;;;;;31.37;14.20;;;;;;;9.39;61.64;98795.56;5089373;28;20194;-84
2021/12/26 16:31:12;;;;;;;27.73;13.13;;;;;;;9.38;61.80;98789.50;5089515;28;20207;-84
2021/12/26 16:33:38;;;;;;;32.10;12.70;;;;;;;9.51;60.92;98782.66;5090252;28;20192;-85
2021/12/26 16:36:04;;;;;;;26.37;12.30;;;;;;;9.65;60.85;98774.09;5090736;28;20173;-83
2021/12/26 16:38:29;;;;;;;27.77;12.40;;;;;;;9.75;60.61;98770.88;5090216;28;20178;-85
2021/12/26 16:40:55;;;;;;;36.57;15.10;;;;;;;9.84;60.20;98774.78;5089092;28;20288;-85
2021/12/26 16:43:22;;;;;;;29.03;14.00;;;;;;;9.93;59.71;98787.38;5090574;28;20170;-85
2021/12/26 16:45:48;;;;;;;28.80;11.90;;;;;;;9.96;59.35;98799.44;5090246;28;20185;-86
2021/12/26 16:48:14;;;;;;;34.70;15.87;;;;;;;9.99;58.82;98800.09;5090309;28;20176;-86
2021/12/26 16:50:40;;;;;;;37.17;17.57;;;;;;;10.01;59.17;98807.88;5089845;28;20196;-86
2021/12/26 16:53:07;;;;;;;33.70;13.60;;;;;;;9.99;58.92;98804.47;5089928;28;20554;-86
2021/12/26 16:55:35;;;;;;;26.47;11.97;;;;;;;9.78;59.88;98801.28;5088867;28;20590;-86
2021/12/26 16:58:00;;;;;;;27.53;11.87;;;;;;;9.77;60.55;98808.28;5088856;28;20222;-85
2021/12/26 17:00:26;;;;;;;26.67;11.43;;;;;;;9.77;60.25;98810.88;5089822;28;20175;-86
2021/12/26 17:02:52;;;;;;;27.50;12.03;;;;;;;9.80;60.45;98815.97;5089554;28;20169;-85
2021/12/26 17:05:19;;;;;;;21.77;10.73;;;;;;;9.82;59.94;98808.03;5089872;28;20175;-85
2021/12/26 17:07:48;;;;;;;22.93;11.43;;;;;;;9.83;60.05;98804.47;5089659;28;20262;-86
2021/12/26 17:10:15;;;;;;;21.30;10.53;;;;;;;9.85;59.41;98805.25;5089330;28;20320;-85
2021/12/26 17:12:41;;;;;;;31.57;10.70;;;;;;;9.84;59.05;98806.19;5090210;28;20318;-85
2021/12/26 17:15:07;;;;;;;26.77;12.17;;;;;;;9.91;59.24;98812.75;5089529;28;20644;-86
2021/12/26 17:17:32;;;;;;;27.80;10.77;;;;;;;9.89;59.48;98810.25;5088775;28;20285;-86
2021/12/26 17:19:58;;;;;;;20.77;9.47;;;;;;;9.89;59.34;98805.00;5088674;28;20263;-86
2021/12/26 17:22:24;;;;;;;18.67;9.97;;;;;;;9.90;59.11;98811.09;5078792;28;20272;-86
2021/12/26 17:24:49;;;;;;;24.20;10.63;;;;;;;9.94;59.11;98809.97;5074834;28;20179;-85
2021/12/26 17:27:19;;;;;;;23.50;10.13;;;;;;;9.94;58.71;98803.88;5074812;28;20188;-86
2021/12/26 17:29:50;;;;;;;29.20;12.63;;;;;;;9.92;58.46;98806.59;5074657;28;20587;-86
2021/12/26 17:32:16;;;;;;;27.13;11.77;;;;;;;9.90;58.74;98811.09;5074739;28;20177;-86
2021/12/26 17:34:42;;;;;;;28.47;11.33;;;;;;;9.67;58.66;98814.94;5075697;28;20259;-85
2021/12/26 17:37:08;;;;;;;30.77;12.87;;;;;;;9.62;59.25;98829.19;5075881;28;20209;-86
2021/12/26 17:39:33;;;;;;;32.60;13.43;;;;;;;9.64;59.37;98820.34;5074553;28;20183;-86
2021/12/26 17:41:59;;;;;;;29.70;13.30;;;;;;;9.61;59.14;98817.91;5074905;28;20176;-85
2021/12/26 17:44:24;;;;;;;32.60;14.50;;;;;;;9.54;59.45;98820.94;5075621;28;20180;-85
2021/12/26 17:46:50;;;;;;;36.50;13.93;;;;;;;9.50;59.79;98824.63;5074505;28;20594;-86
2021/12/26 17:49:15;;;;;;;36.40;15.53;;;;;;;9.50;59.48;98827.25;5074649;28;20613;-86
2021/12/26 17:51:41;;;;;;;33.07;14.97;;;;;;;9.48;59.39;98834.34;5108417;28;20340;-86
2021/12/26 17:54:06;;;;;;;39.37;16.17;;;;;;;9.50;59.30;98835.09;5075018;28;20613;-86
2021/12/26 17:56:32;;;;;;;39.03;16.73;;;;;;;9.51;59.01;98827.16;5075197;28;20524;-85
2021/12/26 17:58:57;;;;;;;49.53;18.97;;;;;;;9.52;59.12;98830.63;5075488;28;20180;-86
2021/12/26 18:01:24;;;;;;;28.07;15.70;;;;;;;9.42;59.10;98830.25;5074766;28;20179;-85
2021/12/26 18:03:49;;;;;;;34.40;16.57;;;;;;;9.40;58.90;98839.13;5074106;28;20242;-86
2021/12/26 18:06:15;;;;;;;42.07;18.40;;;;;;;9.40;58.94;98839.13;5074403;28;20185;-86
2021/12/26 18:08:40;;;;;;;33.50;15.43;;;;;;;9.35;58.90;98838.53;5074959;28;20183;-87
2021/12/26 18:11:10;;;;;;;40.70;15.00;;;;;;;9.36;59.11;98835.81;5073932;28;20253;-87
2021/12/26 18:13:37;;;;;;;32.00;15.93;;;;;;;9.16;59.15;98836.84;5074832;28;20223;-87
2021/12/26 18:16:03;;;;;;;39.00;16.27;;;;;;;9.00;59.27;98841.19;5075345;28;20234;-88
2021/12/26 18:18:29;;;;;;;29.50;16.07;;;;;;;8.90;60.20;98839.97;5074935;28;20271;-88
2021/12/26 18:20:56;;;;;;;32.63;14.77;;;;;;;8.95;60.51;98840.56;5107531;28;20277;-88
2021/12/26 18:23:22;;;;;;;31.93;14.23;;;;;;;8.88;60.14;98838.34;5074547;28;20172;-87
2021/12/26 18:25:48;;;;;;;34.27;15.63;;;;;;;8.82;60.76;98836.03;5074511;28;20178;-87
2021/12/26 18:28:15;;;;;;;39.53;15.93;;;;;;;8.74;61.57;98833.81;5107398;28;20636;-88
2021/12/26 18:30:41;;;;;;;39.53;16.60;;;;;;;8.81;61.28;98836.94;5074431;28;20788;-88
2021/12/26 18:33:07;;;;;;;36.33;15.83;;;;;;;8.73;61.51;98834.72;5073554;28;20182;-86
2021/12/26 18:35:33;;;;;;;38.60;15.27;;;;;;;8.79;62.30;98833.56;5074294;28;20552;-88
2021/12/26 18:37:59;;;;;;;36.90;15.33;;;;;;;8.79;61.77;98837.03;5074608;28;20258;-88
2021/12/26 18:40:28;;;;;;;30.40;14.13;;;;;;;8.76;62.15;98842.41;5074317;28;20169;-87
2021/12/26 18:42:56;;;;;;;31.40;15.17;;;;;;;8.82;62.15;98844.72;5074223;28;20180;-88
2021/12/26 18:45:22;;;;;;;27.57;13.57;;;;;;;8.80;62.01;98843.97;5074198;28;20184;-88
2021/12/26 18:47:48;;;;;;;28.30;13.37;;;;;;;8.82;61.94;98846.47;5073241;28;20177;-88
2021/12/26 18:50:15;;;;;;;40.00;17.27;;;;;;;8.81;62.02;98847.41;5074030;28;20197;-87
2021/12/26 18:52:41;;;;;;;33.83;16.50;;;;;;;8.81;62.07;98853.47;5074345;28;20175;-88
2021/12/26 18:55:10;;;;;;;27.63;13.20;;;;;;;8.69;62.06;98851.47;5073981;28;20179;-88
2021/12/26 18:57:36;;;;;;;41.37;14.87;;;;;;;8.76;62.14;98854.63;5073529;28;20614;-87
2021/12/26 19:00:05;;;;;;;36.47;17.23;;;;;;;8.81;61.38;98855.22;5073821;28;20187;-88
2021/12/26 19:02:33;;;;;;;34.67;16.13;;;;;;;8.74;61.93;98864.31;5073040;28;20200;-88
2021/12/26 19:04:59;;;;;;;39.57;17.63;;;;;;;8.69;61.89;98866.31;5073135;28;20176;-87
2021/12/26 19:07:25;;;;;;;36.90;19.70;;;;;;;8.68;62.18;98859.38;5073732;28;20236;-88
2021/12/26 19:09:53;;;;;;;50.03;19.40;;;;;;;8.65;61.81;98852.53;5073546;28;20217;-88
2021/12/26 19:12:18;;;;;;;51.67;22.03;;;;;;;8.59;61.97;98851.06;5073649;28;20177;-88
2021/12/26 19:14:44;;;;;;;51.83;19.97;;;;;;;8.58;62.10;98861.59;5073689;28;20169;-88
2021/12/26 19:17:13;;;;;;;49.50;19.20;;;;;;;8.62;61.69;98852.72;5073613;28;20655;-88
2021/12/26 19:19:39;;;;;;;39.80;18.43;;;;;;;8.55;61.71;98846.94;5073533;28;20173;-88
2021/12/26 19:22:07;;;;;;;40.03;20.20;;;;;;;8.54;61.55;98847.00;5073540;28;20170;-88
2021/12/26 19:24:33;;;;;;;64.83;24.83;;;;;;;8.61;61.69;98848.41;5073511;28;20235;-88
2021/12/26 19:27:00;;;;;;;41.27;19.27;;;;;;;8.60;61.19;98850.16;5073421;28;20618;-88
2021/12/26 19:29:27;;;;;;;39.10;16.00;;;;;;;8.69;61.57;98853.25;5072330;28;20269;-88
2021/12/26 19:31:54;;;;;;;35.67;14.03;;;;;;;8.60;60.96;98855.38;5073352;28;20283;-87
2021/12/26 19:34:20;;;;;;;39.83;16.80;;;;;;;8.41;61.45;98861.59;5073650;28;20204;-87
2021/12/26 19:36:45;;;;;;;30.67;15.53;;;;;;;8.20;62.39;98854.75;5072313;28;20537;-88
2021/12/26 19:39:12;;;;;;;40.43;16.23;;;;;;;8.07;63.33;98853.63;5073549;28;20177;-88
2021/12/26 19:41:40;;;;;;;33.93;14.57;;;;;;;8.14;63.65;98849.81;5073193;28;20310;-88
2021/12/26 19:44:07;;;;;;;51.97;14.90;;;;;;;8.19;63.95;98847.81;5072158;28;20180;-88
2021/12/26 19:46:33;;;;;;;41.67;16.17;;;;;;;8.28;63.51;98852.66;5073133;28;20220;-88
2021/12/26 20:00:11;;;;;;;41.13;17.07;;;;;;;8.07;64.44;98860.53;5071371;28;20282;-88
2021/12/26 20:06:02;;;;;;;46.20;17.20;;;;;;;8.20;64.26;98868.63;5071373;28;20235;-88
2021/12/26 20:09:02;;;;;;;60.30;23.37;;;;;;;8.17;64.52;98867.94;5071968;28;20161;-88
2021/12/26 20:46:07;;;;;;;44.80;21.60;;;;;;;8.01;63.44;98860.84;5050766;28;20216;-88
2021/12/26 20:48:33;;;;;;;43.37;17.83;;;;;;;7.97;63.75;98858.41;5044485;28;20646;-88
2021/12/26 20:50:59;;;;;;;37.23;16.33;;;;;;;7.97;63.90;98854.03;5072455;28;20310;-84
2021/12/26 20:53:25;;;;;;;38.57;15.67;;;;;;;8.01;63.74;98854.75;5072746;28;20195;-84
2021/12/26 20:55:54;;;;;;;40.33;18.67;;;;;;;8.06;63.35;98852.78;5072596;28;20619;-89
2021/12/26 20:58:20;;;;;;;27.47;16.00;;;;;;;7.99;63.94;98854.00;5076711;28;20181;-88
2021/12/26 21:00:48;;;;;;;37.30;16.93;;;;;;;7.95;63.52;98863.72;5075233;28;20192;-86
2021/12/26 21:03:14;;;;;;;32.53;16.27;;;;;;;8.01;63.51;98850.41;5076217;28;20177;-85
2021/12/26 21:05:40;;;;;;;33.00;14.93;;;;;;;7.89;62.85;98852.69;5076915;28;20184;-84
2021/12/26 21:08:05;;;;;;;32.30;15.77;;;;;;;7.79;63.29;98854.91;5076731;28;20185;-84
2021/12/26 21:10:33;;;;;;;31.13;14.33;;;;;;;7.86;63.19;98850.25;5075904;28;20206;-84
2021/12/26 21:12:59;;;;;;;33.67;15.00;;;;;;;7.90;63.33;98855.25;5075091;28;20207;-84
2021/12/26 21:29:05;;;;;;;23.67;12.67;;;;;;;7.65;65.78;98849.44;5032066;28;20182;-88
2021/12/26 21:31:56;;;;;;;32.73;13.80;;;;;;;7.72;65.43;98852.66;5035606;28;20202;-87
2021/12/26 21:34:22;;;;;;;27.37;12.53;;;;;;;7.70;65.75;98857.94;5025154;28;20205;-88
2021/12/26 21:36:47;;;;;;;32.77;14.17;;;;;;;7.47;66.07;98854.69;5035855;28;20181;-88
2021/12/26 21:39:16;;;;;;;29.63;13.33;;;;;;;7.43;66.27;98848.75;5035508;28;20182;-88
2021/12/26 21:41:50;;;;;;;23.10;12.30;;;;;;;7.37;66.58;98856.81;5035459;28;20178;-87
2021/12/26 21:44:27;;;;;;;29.70;15.10;;;;;;;7.27;66.68;98856.38;5018471;28;20558;-88
2021/12/26 21:46:52;;;;;;;28.20;12.07;;;;;;;7.37;66.52;98862.88;5035703;28;20162;-88
2021/12/26 21:49:18;;;;;;;25.17;11.93;;;;;;;7.45;66.61;98849.50;5035385;28;20189;-88
2021/12/26 21:51:44;;;;;;;26.33;12.57;;;;;;;7.47;67.06;98852.88;5035492;28;20209;-88
2021/12/26 21:54:11;;;;;;;24.80;11.80;;;;;;;7.47;67.21;98852.06;5017785;28;20208;-88
2021/12/26 21:56:40;;;;;;;23.67;12.97;;;;;;;7.53;66.97;98846.56;5017848;28;20186;-87
2021/12/26 21:59:13;;;;;;;34.60;13.33;;;;;;;7.41;67.36;98843.59;5035692;28;20209;-88
2021/12/26 22:01:39;;;;;;;27.37;13.00;;;;;;;7.25;68.24;98845.19;5035312;28;20178;-88
2021/12/26 22:04:04;;;;;;;30.73;13.47;;;;;;;7.09;68.76;98836.34;5035016;28;20620;-88
2021/12/26 22:06:39;;;;;;;30.37;12.90;;;;;;;7.27;68.87;98834.69;5017539;28;20209;-88
2021/12/26 22:09:04;;;;;;;32.67;13.93;;;;;;;7.44;68.46;98830.41;5033967;28;20174;-85
2021/12/26 22:11:30;;;;;;;43.27;14.83;;;;;;;7.47;68.46;98828.59;5034771;28;20194;-89
2021/12/26 22:13:56;;;;;;;29.43;13.57;;;;;;;7.56;68.14;98830.78;5035136;28;20188;-87
2021/12/26 22:16:21;;;;;;;26.17;12.73;;;;;;;7.47;67.37;98839.03;5035383;28;20187;-86
2021/12/26 22:18:47;;;;;;;21.07;11.80;;;;;;;7.38;67.94;98842.88;5034790;28;20178;-87
2021/12/26 22:21:19;;;;;;;33.63;15.57;;;;;;;7.48;67.18;98843.31;5034962;28;20173;-87
2021/12/26 22:23:47;;;;;;;24.13;13.13;;;;;;;7.58;66.50;98835.00;5033635;28;20265;-89
2021/12/26 22:26:17;;;;;;;34.20;14.10;;;;;;;7.54;66.45;98838.69;5034558;28;20178;-88
2021/12/26 22:28:43;;;;;;;42.50;17.13;;;;;;;7.46;66.16;98839.94;5017059;28;20545;-89
2021/12/26 22:31:29;;;;;;;40.27;16.97;;;;;;;7.53;65.76;98836.97;5016953;28;20210;-87
2021/12/26 22:33:54;;;;;;;37.67;17.20;;;;;;;7.56;66.00;98839.44;5033343;28;20198;-87
2021/12/26 22:36:23;;;;;;;38.53;16.30;;;;;;;7.58;66.07;98829.78;5034473;28;20193;-87
2021/12/26 22:38:51;;;;;;;30.83;15.57;;;;;;;7.62;66.64;98841.78;5034979;28;20174;-87
2021/12/26 22:41:19;;;;;;;34.07;17.33;;;;;;;7.65;66.17;98853.84;5034352;28;20620;-88
2021/12/26 22:43:45;;;;;;;36.43;16.17;;;;;;;7.56;66.16;98842.06;5016825;28;20702;-87
2021/12/26 22:49:36;;;;;;;33.67;14.30;;;;;;;7.56;66.27;98844.66;5034177;28;20197;-88
2021/12/26 23:01:25;;;;;;;30.30;13.33;;;;;;;7.63;67.25;98845.22;5131775;23;20604;-87
2021/12/26 23:03:50;;;;;;;33.67;14.37;;;;;;;7.73;67.62;98838.69;5014231;28;20171;-87
2021/12/26 23:06:16;;;;;;;35.77;14.20;;;;;;;7.80;67.03;98837.50;5014186;28;20529;-87
2021/12/26 23:08:42;;;;;;;41.93;16.87;;;;;;;7.87;67.62;98824.09;4996825;28;20325;-87
2021/12/26 23:11:33;;;;;;;32.73;14.20;;;;;;;7.90;67.68;98834.38;5014020;28;20711;-87
2021/12/26 23:13:58;;;;;;;31.63;13.00;;;;;;;7.89;68.09;98819.63;5008643;28;20190;-87
2021/12/26 23:16:24;;;;;;;37.07;17.50;;;;;;;7.86;67.14;98814.56;5014092;28;20178;-87
2021/12/26 23:18:54;;;;;;;45.20;18.93;;;;;;;7.90;67.56;98820.47;5013886;28;20560;-88
2021/12/26 23:32:12;;;;;;;37.03;15.17;;;;;;;8.04;66.17;98798.03;4984108;28;20269;-88
2021/12/26 23:38:38;;;;;;;40.97;17.40;;;;;;;7.99;65.39;98789.56;5003017;28;20705;-87
2021/12/26 23:41:42;;;;;;;;;;;;;;;;;;;;;
2021/12/26 23:44:53;;;;;;;28.00;14.10;;;;;;;7.80;65.31;98807.03;5013321;28;20182;-87
2021/12/26 23:47:42;;;;;;;29.13;14.17;;;;;;;7.76;65.07;98802.84;4994813;28;20234;-88
2021/12/26 23:50:37;;;;;;;31.97;14.40;;;;;;;7.67;65.52;98805.91;4995499;28;20254;-86
2021/12/26 23:53:03;;;;;;;28.80;13.60;;;;;;;7.55;66.84;98816.06;5013391;28;20159;-87
2021/12/26 23:55:29;;;;;;;27.37;14.37;;;;;;;7.51;66.93;98822.31;5013398;28;20604;-86
2021/12/26 23:57:55;;;;;;;30.80;14.60;;;;;;;7.48;67.17;98835.47;5013706;28;20185;-87
